Time;durP1;ratioP1;P1;durP2;ratioP2;P2;SDS_P1;SDS_P2;PMS_P1;PMS_P2;Temp;Humidity;BMP_temperature;BMP_pressure;BME280_temperature;BME280_humidity;BME280_pressure;Samples;Min_cycle;Max_cycle;Signal;HPM_P1;HPM_P2
2023/03/11 00:00:32;;;;;;;;;;;;;;;;;;;;;
2023/03/11 00:04:12;;;;;;;4.50;2.40;;;;;;;5.75;82.33;93475.11;110245;1278;22178;-66
2023/03/11 00:07:55;;;;;;;;;;;;;;;;;;;;;
2023/03/11 00:11:35;;;;;;;10.70;5.80;;;;;;;5.84;82.31;93466.45;110182;1271;22177;-66
2023/03/11 00:18:25;;;;;;;9.90;6.20;;;;;;;5.98;82.24;93458.69;110291;1278;22108;-66
2023/03/11 00:21:41;;;;;;;;;;;;;;;;;;;;;
2023/03/11 00:33:09;;;;;;;13.20;7.30;;;;;;;5.91;81.31;93453.66;110073;1279;22269;-67
2023/03/11 00:36:49;;;;;;;;;;;;;;;;;;;;;
2023/03/11 00:40:29;;;;;;;13.90;7.70;;;;;;;6.00;81.80;93441.84;110175;1279;22160;-66
2023/03/11 00:44:11;;;;;;;8.00;4.30;;;;;;;6.04;81.86;93433.14;110081;1279;22255;-66
2023/03/11 00:47:43;;;;;;;;;;;;;;;;;;;;;
2023/03/11 00:55:23;;;;;;;9.60;5.00;;;;;;;5.86;81.17;93415.45;110080;1279;22317;-67
2023/03/11 00:59:05;;;;;;;6.10;3.70;;;;;;;5.77;81.08;93399.03;110127;1279;22161;-66
2023/03/11 01:02:53;;;;;;;5.50;3.80;;;;;;;5.68;81.51;93393.39;110145;1279;22116;-67
2023/03/11 01:06:43;;;;;;;16.80;10.00;;;;;;;5.51;82.63;93386.65;110141;1266;22099;-66
2023/03/11 01:14:03;;;;;;;;;;;;;;;;;;;;;
2023/03/11 01:21:25;;;;;;;15.70;7.40;;;;;;;5.33;82.76;93380.14;110079;1279;22199;-66
2023/03/11 01:25:08;;;;;;;9.80;5.90;;;;;;;5.30;82.93;93375.02;110096;1279;22197;-66
2023/03/11 01:28:05;;;;;;;;;;;;;;;;;;;;;
2023/03/11 01:31:49;;;;;;;;;;;;;;;;;;;;;
2023/03/11 01:34:59;;;;;;;;;;;;;;;;;;;;;
2023/03/11 01:42:38;;;;;;;5.60;3.30;;;;;;;5.27;82.53;93347.05;110186;1278;22220;-66
2023/03/11 01:46:22;;;;;;;;;;;;;;;;;;;;;
2023/03/11 01:53:12;;;;;;;7.30;4.40;;;;;;;5.41;83.32;93336.43;110107;1278;22087;-66
2023/03/11 01:57:01;;;;;;;12.80;6.30;;;;;;;5.48;83.44;93340.22;110221;1278;22997;-66
2023/03/11 02:00:50;;;;;;;4.30;1.90;;;;;;;5.55;82.78;93334.90;110208;1278;22136;-66
2023/03/11 02:04:08;;;;;;;;;;;;;;;;;;;;;
2023/03/11 02:07:49;;;;;;;10.90;5.40;;;;;;;5.64;82.96;93328.48;110240;1278;22959;-66
2023/03/11 02:11:38;;;;;;;11.80;5.20;;;;;;;5.68;82.73;93317.69;110230;1278;22139;-66
2023/03/11 02:15:18;;;;;;;9.30;5.80;;;;;;;5.65;83.04;93324.96;110109;1276;22127;-66
2023/03/11 02:18:58;;;;;;;6.70;3.40;;;;;;;5.75;82.96;93317.09;110153;1278;22297;-66
2023/03/11 02:22:32;;;;;;;;;;;;;;;;;;;;;
2023/03/11 02:26:17;;;;;;;7.60;4.20;;;;;;;5.96;82.26;93312.69;110039;1278;22297;-66
2023/03/11 02:33:37;;;;;;;;;;;;;;;;;;;;;
2023/03/11 02:37:15;;;;;;;8.00;4.00;;;;;;;6.03;82.45;93302.31;110160;1279;22139;-66
2023/03/11 02:40:36;;;;;;;;;;;;;;;;;;;;;
2023/03/11 02:44:19;;;;;;;9.40;5.90;;;;;;;5.95;82.82;93301.55;110040;1279;22285;-66
2023/03/11 02:48:23;;;;;;;6.10;4.00;;;;;;;6.00;82.62;93303.95;110082;1279;22939;-66
2023/03/11 02:51:47;;;;;;;8.50;3.70;;;;;;;6.06;82.25;93299.59;110186;1279;22148;-66
2023/03/11 02:55:21;;;;;;;7.70;3.70;;;;;;;6.02;82.52;93303.75;110084;1279;22797;-66
2023/03/11 02:58:59;;;;;;;;;;;;;;;;;;;;;
2023/03/11 03:02:57;;;;;;;13.50;7.00;;;;;;;5.90;82.70;93287.58;109999;1279;23206;-66
2023/03/11 03:06:35;;;;;;;21.50;9.40;;;;;;;5.90;82.63;93286.05;110024;1279;22100;-66
2023/03/11 03:09:41;;;;;;;12.80;5.80;;;;;;;5.96;83.10;93296.79;110155;1279;23075;-66
2023/03/11 03:12:42;;;;;;;14.30;6.90;;;;;;;5.96;84.43;93302.41;110167;1279;22949;-66
2023/03/11 03:16:33;;;;;;;12.70;6.60;;;;;;;5.92;84.30;93309.49;110197;1279;22104;-67
2023/03/11 03:20:00;;;;;;;11.80;6.40;;;;;;;5.89;84.28;93320.42;110075;1270;22197;-66
2023/03/11 03:23:33;;;;;;;9.40;5.70;;;;;;;5.84;84.05;93327.92;110089;1279;22106;-66
2023/03/11 03:27:03;;;;;;;11.80;7.10;;;;;;;5.81;85.17;93326.98;110098;1279;22117;-66
2023/03/11 03:30:34;;;;;;;10.50;7.20;;;;;;;5.74;86.22;93321.31;110164;1279;22204;-66
2023/03/11 03:37:57;;;;;;;;;;;;;;;;;;;;;
2023/03/11 03:41:39;;;;;;;;;;;;;;;;;;;;;
2023/03/11 03:45:03;;;;;;;6.90;3.50;;;;;;;6.18;87.29;93314.81;110243;1262;22900;-66
2023/03/11 03:48:47;;;;;;;3.70;3.00;;;;;;;6.25;88.34;93313.16;110250;1278;22126;-67
2023/03/11 03:52:36;;;;;;;1.40;1.10;;;;;;;6.36;88.34;93316.92;110213;1278;22291;-66
2023/03/11 03:56:11;;;;;;;2.00;0.30;;;;;;;6.61;88.31;93319.63;110150;1278;23150;-66
2023/03/11 03:59:04;;;;;;;0.20;0.20;;;;;;;6.84;87.56;93321.98;110137;1278;22271;-66
2023/03/11 04:02:06;;;;;;;;;;;;;;;;;;;;;
2023/03/11 04:05:12;;;;;;;0.20;0.20;;;;;;;7.09;86.56;93331.64;110222;1278;22902;-65
2023/03/11 04:08:39;;;;;;;0.30;0.20;;;;;;;7.14;85.98;93341.02;110227;1278;22380;-66
2023/03/11 04:12:20;;;;;;;0.20;0.10;;;;;;;7.12;85.88;93345.33;110196;1278;22050;-66
2023/03/11 04:15:56;;;;;;;0.20;0.20;;;;;;;7.07;85.12;93354.62;110017;1278;23014;-66
2023/03/11 04:19:13;;;;;;;0.40;0.40;;;;;;;7.03;84.86;93358.29;110051;1278;22134;-66
2023/03/11 04:22:29;;;;;;;;;;;;;;;;;;;;;
2023/03/11 04:25:52;;;;;;;0.90;0.40;;;;;;;6.89;84.28;93356.77;110217;1278;22108;-66
2023/03/11 04:28:54;;;;;;;;;;;;;;;;;;;;;
2023/03/11 04:32:21;;;;;;;0.60;0.30;;;;;;;6.88;84.44;93361.70;110220;1278;22126;-66
2023/03/11 04:35:55;;;;;;;1.10;0.40;;;;;;;6.85;84.33;93367.04;110166;1278;22269;-66
2023/03/11 04:39:26;;;;;;;0.40;0.30;;;;;;;6.85;84.44;93375.45;110231;1257;22225;-66
2023/03/11 04:42:29;;;;;;;0.30;0.30;;;;;;;6.85;84.72;93377.36;110113;1278;22214;-66
2023/03/11 04:48:53;;;;;;;0.60;0.30;;;;;;;6.80;83.86;93393.98;110210;1264;22103;-66
2023/03/11 04:52:28;;;;;;;1.20;0.30;;;;;;;6.70;83.27;93399.61;110049;1278;23001;-66
2023/03/11 04:55:35;;;;;;;0.20;0.20;;;;;;;6.57;83.12;93402.73;110050;1278;22122;-66
2023/03/11 04:58:44;;;;;;;;;;;;;;;;;;;;;
2023/03/11 05:01:55;;;;;;;0.30;0.30;;;;;;;6.45;83.38;93416.11;110204;1278;22101;-66
2023/03/11 05:05:19;;;;;;;0.30;0.30;;;;;;;6.42;83.59;93425.30;110184;1278;22266;-66
2023/03/11 05:09:06;;;;;;;0.30;0.30;;;;;;;6.34;82.70;93416.16;110167;1278;22106;-66
2023/03/11 05:12:39;;;;;;;;;;;;;;;;;;;;;
2023/03/11 05:16:19;;;;;;;0.90;0.30;;;;;;;6.26;82.86;93418.05;110156;1278;22164;-65
2023/03/11 05:19:33;;;;;;;0.40;0.40;;;;;;;6.25;83.12;93424.20;110121;1278;22291;-66
2023/03/11 05:23:27;;;;;;;2.10;0.30;;;;;;;6.23;82.79;93425.66;110197;1278;22173;-66
2023/03/11 05:26:52;;;;;;;0.10;0.10;;;;;;;6.18;82.60;93418.86;110122;1278;22171;-66
2023/03/11 05:30:14;;;;;;;0.30;0.30;;;;;;;6.21;82.37;93414.40;110230;1278;22752;-66
2023/03/11 05:37:34;;;;;;;0.40;0.40;;;;;;;6.25;82.47;93410.77;110087;1278;22139;-66
2023/03/11 05:40:56;;;;;;;;;;;;;;;;;;;;;
2023/03/11 05:47:59;;;;;;;3.90;2.40;;;;;;;6.39;83.49;93399.93;110232;1278;22847;-65
2023/03/11 05:54:48;;;;;;;3.50;1.80;;;;;;;6.37;84.52;93398.98;110117;1278;22154;-66
2023/03/11 05:57:48;;;;;;;2.60;1.20;;;;;;;6.41;84.81;93409.09;110222;1278;22596;-66
2023/03/11 06:01:12;;;;;;;;;;;;;;;;;;;;;
2023/03/11 06:04:52;;;;;;;;;;;;;;;;;;;;;
2023/03/11 06:08:12;;;;;;;2.00;1.50;;;;;;;6.62;83.67;93407.77;110057;1278;22078;-66
2023/03/11 06:11:30;;;;;;;;;;;;;;;;;;;;;
2023/03/11 06:14:50;;;;;;;;;;;;;;;;;;;;;
2023/03/11 06:18:06;;;;;;;4.40;3.80;;;;;;;6.68;82.40;93415.22;110240;1278;22806;-66
2023/03/11 06:21:41;;;;;;;;;;;;;;;;;;;;;
2023/03/11 06:25:14;;;;;;;6.70;4.50;;;;;;;6.78;82.10;93417.65;110205;1278;22170;-66
2023/03/11 06:28:26;;;;;;;;;;;;;;;;;;;;;
2023/03/11 06:32:10;;;;;;;9.70;7.40;;;;;;;6.85;81.96;93437.29;110260;1278;22283;-66
2023/03/11 06:35:50;;;;;;;;;;;;;;;;;;;;;
2023/03/11 06:39:31;;;;;;;6.20;5.10;;;;;;;6.85;81.59;93431.16;110177;1278;22119;-66
2023/03/11 06:42:53;;;;;;;;;;;;;;;;;;;;;
2023/03/11 06:46:17;;;;;;;5.90;4.60;;;;;;;6.84;80.63;93430.88;110251;1268;22883;-66
2023/03/11 06:49:45;;;;;;;;;;;;;;;;;;;;;
2023/03/11 06:53:06;;;;;;;5.30;4.50;;;;;;;6.78;79.87;93435.98;110251;1278;22293;-66
2023/03/11 06:56:51;;;;;;;5.90;4.40;;;;;;;6.91;80.69;93439.71;110256;1278;22113;-66
2023/03/11 07:00:40;;;;;;;10.00;7.30;;;;;;;7.00;79.67;93446.70;110203;1278;22281;-66
2023/03/11 07:03:55;;;;;;;6.50;5.50;;;;;;;7.08;78.83;93448.11;110071;1278;22206;-65
2023/03/11 07:07:01;;;;;;;6.30;4.20;;;;;;;7.10;78.35;93442.44;110251;1278;22136;-66
2023/03/11 07:09:56;;;;;;;6.50;3.90;;;;;;;7.11;77.73;93443.98;110162;1278;22782;-66
2023/03/11 07:13:07;;;;;;;3.30;3.00;;;;;;;7.07;77.48;93444.98;110266;1278;22294;-65
2023/03/11 07:16:02;;;;;;;5.20;3.90;;;;;;;7.06;76.94;93440.86;110052;1278;22122;-65
2023/03/11 07:18:54;;;;;;;4.40;3.40;;;;;;;7.00;75.05;93445.45;110065;1278;22152;-66
2023/03/11 07:21:53;;;;;;;4.90;3.60;;;;;;;6.93;72.61;93441.02;110249;1278;22219;-65
2023/03/11 07:24:51;;;;;;;3.40;2.40;;;;;;;6.90;71.91;93450.56;110282;1278;22834;-65
2023/03/11 07:27:55;;;;;;;3.30;2.30;;;;;;;6.89;69.39;93452.00;110233;1278;22576;-65
2023/03/11 07:31:03;;;;;;;;;;;;;;;;;;;;;
2023/03/11 07:34:12;;;;;;;102.50;50.50;;;;;;;6.91;70.12;93462.42;110155;1279;23148;-66
2023/03/11 07:36:50;;;;;;;6.70;5.20;;;;;;;6.94;69.55;93464.05;110159;1279;22803;-65
2023/03/11 07:39:29;;;;;;;3.80;3.50;;;;;;;6.91;66.94;93466.59;110162;1279;22230;-65
2023/03/11 07:42:53;;;;;;;;;;;;;;;;;;;;;
2023/03/11 07:45:49;;;;;;;2.60;1.80;;;;;;;6.96;65.86;93467.47;110151;1279;22814;-66
2023/03/11 07:48:36;;;;;;;3.20;1.60;;;;;;;6.93;65.18;93468.95;110161;1279;22878;-65
2023/03/11 07:51:44;;;;;;;;;;;;;;;;;;;;;
2023/03/11 07:54:58;;;;;;;2.20;1.80;;;;;;;6.92;63.49;93480.90;110165;1279;22136;-65
2023/03/11 07:57:48;;;;;;;3.30;2.30;;;;;;;6.92;63.00;93484.73;110172;1279;22152;-66
2023/03/11 08:03:39;;;;;;;1.60;1.40;;;;;;;7.05;64.52;93486.70;110152;1279;22127;-66
2023/03/11 08:06:39;;;;;;;;;;;;;;;;;;;;;
2023/03/11 08:10:09;;;;;;;;;;;;;;;;;;;;;
2023/03/11 08:13:20;;;;;;;2.00;1.40;;;;;;;7.14;60.49;93495.42;110179;1279;22865;-66
2023/03/11 08:16:11;;;;;;;2.00;1.20;;;;;;;7.12;59.43;93496.88;110124;1279;22187;-66
2023/03/11 08:19:14;;;;;;;1.70;1.40;;;;;;;7.11;58.24;93501.14;110168;1279;22936;-66
2023/03/11 08:22:42;;;;;;;;;;;;;;;;;;;;;
2023/03/11 08:25:55;;;;;;;1.60;1.40;;;;;;;7.06;55.10;93503.43;110162;1279;22112;-66
2023/03/11 08:29:35;;;;;;;1.20;1.00;;;;;;;7.06;56.02;93500.63;110069;1279;23167;-66
2023/03/11 08:32:41;;;;;;;1.00;0.90;;;;;;;7.10;54.31;93502.94;110241;1278;22114;-66
2023/03/11 08:36:30;;;;;;;0.80;0.60;;;;;;;7.23;53.95;93496.49;110247;1278;22107;-67
2023/03/11 08:39:55;;;;;;;;;;;;;;;;;;;;;
2023/03/11 08:43:17;;;;;;;;;;;;;;;;;;;;;
2023/03/11 08:46:28;;;;;;;3.40;3.10;;;;;;;8.03;53.04;93481.98;110132;1278;22289;-66
2023/03/11 08:49:54;;;;;;;1.50;0.50;;;;;;;8.18;51.49;93486.62;110075;1278;22138;-67
2023/03/11 08:53:43;;;;;;;0.90;0.60;;;;;;;8.25;50.07;93488.77;110169;1278;22115;-67
2023/03/11 08:56:46;;;;;;;1.40;0.50;;;;;;;8.31;50.84;93495.02;110211;1278;22125;-66
2023/03/11 08:59:36;;;;;;;2.60;1.00;;;;;;;8.32;50.14;93506.54;110255;1278;22868;-66
2023/03/11 09:02:52;;;;;;;1.30;0.80;;;;;;;8.28;50.28;93503.55;110278;1278;22116;-66
2023/03/11 09:05:57;;;;;;;2.00;0.50;;;;;;;8.33;51.28;93509.41;110270;1278;22992;-66
2023/03/11 09:09:35;;;;;;;;;;;;;;;;;;;;;
2023/03/11 09:12:52;;;;;;;1.00;0.50;;;;;;;8.44;51.72;93517.75;110176;1278;23048;-67
2023/03/11 09:16:10;;;;;;;;;;;;;;;;;;;;;
2023/03/11 09:19:31;;;;;;;1.00;0.90;;;;;;;8.48;53.02;93531.95;110277;1278;23164;-67
2023/03/11 09:23:00;;;;;;;;;;;;;;;;;;;;;
2023/03/11 09:26:29;;;;;;;;;;;;;;;;;;;;;
2023/03/11 09:29:58;;;;;;;1.30;0.80;;;;;;;8.15;52.23;93520.55;110293;1276;22130;-67
2023/03/11 09:33:31;;;;;;;;;;;;;;;;;;;;;
2023/03/11 09:36:49;;;;;;;1.50;0.70;;;;;;;8.63;52.02;93521.29;110282;1278;22136;-67
2023/03/11 09:40:18;;;;;;;3.50;2.90;;;;;;;8.65;51.48;93536.96;110025;1280;22848;-67
2023/03/11 09:47:12;;;;;;;;;;;;;;;;;;;;;
2023/03/11 09:54:27;;;;;;;1.30;0.80;;;;;;;7.32;51.17;93581.63;110277;1278;22218;-66
2023/03/11 09:57:37;;;;;;;;;;;;;;;;;;;;;
2023/03/11 10:00:39;;;;;;;0.30;0.30;;;;;;;7.08;49.73;93588.85;110258;1278;22884;-66
2023/03/11 10:03:56;;;;;;;0.70;0.50;;;;;;;7.05;50.41;93596.30;110283;1278;22293;-66
2023/03/11 10:07:08;;;;;;;;;;;;;;;;;;;;;
2023/03/11 10:10:22;;;;;;;0.40;0.40;;;;;;;6.97;49.08;93590.29;110297;1278;22115;-66
2023/03/11 10:14:15;;;;;;;;;;;;;;;;;;;;;
2023/03/11 10:29:07;;;;;;;15.90;10.80;;;;;;;7.89;49.40;93625.59;104633;1304;558233;-66
2023/03/11 10:31:53;;;;;;;7.20;6.50;;;;;;;7.95;48.35;93649.54;105883;1287;135942;-67
2023/03/11 10:34:53;;;;;;;1.20;0.70;;;;;;;7.80;48.50;93659.23;106229;1287;24280;-66
2023/03/11 10:37:24;;;;;;;0.50;0.50;;;;;;;7.61;47.64;93661.88;106142;1287;23999;-66
2023/03/11 10:40:20;;;;;;;1.30;1.20;;;;;;;7.38;49.01;93658.20;105863;1287;22728;-66
2023/03/11 10:42:54;;;;;;;0.90;0.70;;;;;;;7.44;48.51;93659.21;105871;1287;22533;-66
2023/03/11 10:45:22;;;;;;;2.10;1.60;;;;;;;7.47;49.22;93661.36;105858;1287;22563;-66
2023/03/11 10:47:51;;;;;;;1.20;0.90;;;;;;;7.46;49.37;93661.89;105888;1287;22757;-66
2023/03/11 10:50:19;;;;;;;1.60;0.60;;;;;;;7.45;50.27;93660.22;105861;1287;24517;-66
2023/03/11 10:53:08;;;;;;;1.10;1.00;;;;;;;7.35;49.85;93660.23;105937;1287;22595;-68
2023/03/11 10:55:48;;;;;;;7.10;6.60;;;;;;;7.28;50.63;93659.44;105878;1286;22652;-67
2023/03/11 10:58:26;;;;;;;2.80;1.10;;;;;;;7.27;50.15;93652.98;105868;1287;25623;-67
2023/03/11 11:01:15;;;;;;;3.20;1.00;;;;;;;7.32;51.20;93647.76;105878;1287;26659;-68
2023/03/11 11:03:48;;;;;;;1.20;0.90;;;;;;;7.67;51.71;93648.35;105860;1283;22529;-68
2023/03/11 11:06:24;;;;;;;2.90;0.80;;;;;;;7.88;50.82;93655.76;106249;1287;24378;-67
2023/03/11 11:09:18;;;;;;;1.00;1.00;;;;;;;7.81;50.78;93669.17;106291;1283;24374;-67
2023/03/11 11:12:13;;;;;;;1.30;1.20;;;;;;;7.46;48.61;93680.11;106242;1284;25615;-67
2023/03/11 11:14:50;;;;;;;1.70;1.30;;;;;;;7.27;48.64;93684.81;106200;1283;23015;-67
2023/03/11 11:17:39;;;;;;;1.30;1.20;;;;;;;7.11;47.78;93683.69;106096;1283;22782;-67
2023/03/11 11:20:17;;;;;;;1.30;1.00;;;;;;;6.83;47.34;93707.55;106123;1284;24547;-66
2023/03/11 11:22:49;;;;;;;1.10;1.00;;;;;;;6.61;47.49;93717.71;106144;1283;25392;-67
2023/03/11 11:25:27;;;;;;;1.70;1.10;;;;;;;6.45;48.05;93723.67;106139;1283;25336;-67
2023/03/11 11:27:58;;;;;;;1.10;0.90;;;;;;;6.22;48.11;93708.35;106142;1283;25294;-67
2023/03/11 11:30:28;;;;;;;3.30;1.10;;;;;;;5.94;48.76;93686.52;106157;1284;25396;-68
2023/03/11 11:33:21;;;;;;;1.30;1.00;;;;;;;5.74;50.61;93679.79;106163;1284;22583;-67
2023/03/11 11:35:57;;;;;;;3.30;0.80;;;;;;;5.57;52.31;93682.41;106139;1284;24239;-68
2023/03/11 11:38:28;;;;;;;1.50;1.10;;;;;;;5.58;52.62;93685.16;106107;1284;24220;-68
2023/03/11 11:41:01;;;;;;;1.20;0.90;;;;;;;5.71;52.29;93675.71;106302;1284;25399;-67
2023/03/11 11:43:45;;;;;;;1.10;1.00;;;;;;;5.78;51.85;93680.56;106296;1284;22643;-68
2023/03/11 11:46:41;;;;;;;1.20;1.00;;;;;;;5.95;51.45;93667.33;106255;1284;22544;-69
2023/03/11 11:49:21;;;;;;;0.70;0.70;;;;;;;6.08;51.91;93658.36;106112;1284;24364;-68
2023/03/11 11:52:14;;;;;;;3.10;1.00;;;;;;;6.24;52.42;93651.88;106334;1284;25325;-68
2023/03/11 11:54:45;;;;;;;6.30;2.50;;;;;;;6.47;52.49;93644.65;106128;1284;22625;-69
2023/03/11 11:57:20;;;;;;;6.30;3.90;;;;;;;6.90;52.31;93630.58;106137;1284;22586;-68
2023/03/11 11:59:49;;;;;;;4.50;3.30;;;;;;;7.08;51.74;93640.05;106297;1284;22903;-69
2023/03/11 12:02:32;;;;;;;2.90;1.50;;;;;;;6.91;52.08;93657.80;106172;1269;22596;-69
2023/03/11 12:05:06;;;;;;;4.40;3.00;;;;;;;6.43;53.73;93667.84;106119;1274;22668;-68
2023/03/11 12:07:55;;;;;;;4.40;1.40;;;;;;;6.04;54.27;93659.69;106534;1280;22541;-68
2023/03/11 12:10:52;;;;;;;2.50;2.10;;;;;;;5.62;54.43;93675.80;106260;1280;22760;-68
2023/03/11 12:13:20;;;;;;;2.80;1.20;;;;;;;5.38;55.34;93687.16;106357;1280;24234;-68
2023/03/11 12:15:57;;;;;;;4.80;2.70;;;;;;;5.23;55.62;93701.02;106224;1280;25366;-68
2023/03/11 12:18:34;;;;;;;1.40;1.20;;;;;;;4.99;56.46;93709.51;106262;1280;22605;-69
2023/03/11 12:21:27;;;;;;;3.10;1.00;;;;;;;4.86;57.20;93702.38;106593;1280;24253;-70
2023/03/11 12:24:34;;;;;;;8.60;4.40;;;;;;;4.80;57.37;93705.34;106275;1280;22523;-67
2023/03/11 12:27:17;;;;;;;2.00;1.60;;;;;;;4.64;58.32;93711.33;106270;1280;22634;-68
2023/03/11 12:29:51;;;;;;;10.10;4.70;;;;;;;4.52;58.49;93738.27;106269;1280;25390;-68
2023/03/11 12:32:29;;;;;;;1.30;1.20;;;;;;;4.39;59.68;93745.21;106246;1280;22559;-69
2023/03/11 12:35:29;;;;;;;13.60;7.40;;;;;;;4.25;60.03;93750.23;106219;1280;22546;-68
2023/03/11 12:38:00;;;;;;;10.40;3.40;;;;;;;4.08;59.06;93752.92;106175;1280;22526;-68
2023/03/11 12:40:46;;;;;;;2.20;1.80;;;;;;;3.89;57.90;93761.67;106252;1280;24274;-68
2023/03/11 12:43:32;;;;;;;4.70;1.70;;;;;;;3.82;58.09;93758.73;106257;1280;22639;-68
2023/03/11 12:46:08;;;;;;;32.20;10.80;;;;;;;3.76;59.05;93754.85;106220;1280;24190;-68
2023/03/11 12:48:46;;;;;;;9.50;3.20;;;;;;;3.73;57.54;93770.56;106290;1280;25436;-68
2023/03/11 12:51:26;;;;;;;5.50;2.80;;;;;;;3.78;58.27;93777.25;106202;1280;22523;-68
2023/03/11 12:53:55;;;;;;;12.00;5.50;;;;;;;3.82;57.42;93779.94;106265;1280;25274;-68
2023/03/11 12:56:49;;;;;;;8.20;4.00;;;;;;;3.89;56.57;93775.95;106286;1280;25525;-68
2023/03/11 12:59:37;;;;;;;4.70;2.60;;;;;;;3.80;54.80;93782.58;106213;1280;24360;-68
2023/03/11 13:02:36;;;;;;;3.70;1.90;;;;;;;3.72;54.28;93788.51;106315;1280;22648;-68
2023/03/11 13:05:21;;;;;;;11.00;4.20;;;;;;;3.68;51.18;93796.23;106564;1280;25455;-68
2023/03/11 13:08:13;;;;;;;2.20;1.80;;;;;;;3.76;52.23;93789.14;106230;1280;22566;-68
2023/03/11 13:10:45;;;;;;;4.80;2.00;;;;;;;3.81;52.29;93785.33;106371;1280;22568;-68
2023/03/11 13:13:29;;;;;;;2.60;1.90;;;;;;;3.81;52.82;93785.52;106455;1279;22527;-68
2023/03/11 13:16:18;;;;;;;1.50;1.00;;;;;;;3.83;52.85;93785.31;106421;1279;22542;-68
2023/03/11 13:18:48;;;;;;;2.00;1.30;;;;;;;3.84;52.27;93789.80;106141;1279;25402;-68
2023/03/11 13:21:26;;;;;;;2.00;1.40;;;;;;;3.96;52.97;93797.38;106320;1279;22514;-68
2023/03/11 13:24:24;;;;;;;4.00;2.50;;;;;;;4.01;52.62;93793.61;106290;1279;22634;-68
2023/03/11 13:26:58;;;;;;;3.40;2.20;;;;;;;3.99;53.15;93787.91;106318;1279;22733;-68
2023/03/11 13:29:35;;;;;;;7.70;3.30;;;;;;;4.02;52.59;93786.98;106354;1279;22810;-68
2023/03/11 13:32:31;;;;;;;4.10;2.30;;;;;;;3.98;53.07;93794.38;106342;1279;22600;-68
2023/03/11 13:35:21;;;;;;;2.60;1.10;;;;;;;3.93;53.42;93800.91;106263;1279;25425;-68
2023/03/11 13:38:10;;;;;;;3.50;1.80;;;;;;;3.84;52.90;93798.14;106291;1279;24355;-68
2023/03/11 13:40:41;;;;;;;4.20;1.50;;;;;;;3.74;53.36;93809.34;106327;1279;24970;-68
2023/03/11 13:43:18;;;;;;;3.40;1.90;;;;;;;3.64;53.99;93809.70;106367;1279;24264;-68
2023/03/11 13:46:25;;;;;;;5.90;2.00;;;;;;;3.60;53.58;93810.83;106338;1279;25226;-68
2023/03/11 13:49:02;;;;;;;4.60;1.80;;;;;;;3.56;54.26;93804.12;106033;1279;22523;-68
2023/03/11 13:51:30;;;;;;;2.50;1.50;;;;;;;3.52;54.12;93804.55;106363;1257;25501;-68
2023/03/11 13:54:24;;;;;;;3.40;2.10;;;;;;;3.66;54.37;93798.00;106303;1279;22519;-68
2023/03/11 13:56:57;;;;;;;1.40;1.20;;;;;;;4.75;52.27;93798.12;106333;1279;24325;-68
2023/03/11 13:59:28;;;;;;;2.00;1.30;;;;;;;5.00;50.56;93787.19;106289;1279;22653;-68
2023/03/11 14:02:05;;;;;;;3.60;1.90;;;;;;;4.69;50.68;93792.70;106301;1279;25214;-68
2023/03/11 14:04:36;;;;;;;1.10;0.90;;;;;;;4.46;51.40;93801.27;106268;1279;25370;-68
2023/03/11 14:07:21;;;;;;;3.00;2.00;;;;;;;4.18;51.30;93805.42;106337;1279;25217;-68
2023/03/11 14:09:49;;;;;;;2.40;1.10;;;;;;;3.92;51.68;93795.89;106302;1279;26734;-67
2023/03/11 14:12:17;;;;;;;3.10;1.80;;;;;;;3.71;51.64;93789.56;106379;1279;22517;-67
2023/03/11 14:15:01;;;;;;;4.10;0.90;;;;;;;3.59;51.88;93792.23;106317;1279;24204;-68
2023/03/11 14:17:29;;;;;;;5.40;1.30;;;;;;;3.49;52.16;93796.64;106380;1279;22652;-69
2023/03/11 14:20:17;;;;;;;6.30;2.70;;;;;;;3.38;52.57;93795.99;106595;1266;25479;-67
2023/03/11 14:22:48;;;;;;;2.60;2.00;;;;;;;3.30;52.94;93798.08;106593;1276;23878;-68
2023/03/11 14:25:35;;;;;;;1.30;1.10;;;;;;;3.26;53.49;93797.95;106671;1276;24372;-69
2023/03/11 14:28:04;;;;;;;2.80;0.60;;;;;;;3.21;54.21;93802.20;106621;1276;25326;-68
2023/03/11 14:30:33;;;;;;;2.70;1.10;;;;;;;3.10;54.39;93798.44;106614;1276;22529;-68
2023/03/11 14:33:22;;;;;;;6.50;3.40;;;;;;;3.11;54.50;93796.67;106615;1276;22663;-68
2023/03/11 14:35:56;;;;;;;3.00;1.50;;;;;;;3.11;55.17;93803.11;106628;1276;24037;-68
2023/03/11 14:38:30;;;;;;;2.60;1.60;;;;;;;3.13;55.16;93802.55;106568;1276;22544;-68
2023/03/11 14:41:04;;;;;;;0.80;0.70;;;;;;;3.13;55.65;93815.23;106640;1276;24274;-76
2023/03/11 14:43:39;;;;;;;2.80;1.60;;;;;;;3.09;55.69;93817.06;106606;1276;22533;-72
2023/03/11 14:46:11;;;;;;;2.00;1.20;;;;;;;3.07;56.41;93822.81;106596;1276;26621;-70
2023/03/11 14:48:42;;;;;;;1.40;1.10;;;;;;;3.02;57.04;93820.81;106641;1275;22653;-71
2023/03/11 14:51:23;;;;;;;1.70;1.40;;;;;;;2.97;57.16;93823.85;106576;1276;24243;-71
2023/03/11 14:53:57;;;;;;;2.00;0.90;;;;;;;2.91;57.90;93827.80;106630;1276;23004;-71
2023/03/11 14:56:26;;;;;;;1.90;1.30;;;;;;;2.85;58.53;93824.94;106616;1276;24313;-71
2023/03/11 14:59:13;;;;;;;1.80;1.50;;;;;;;2.79;59.00;93820.00;106650;1276;22586;-70
2023/03/11 15:01:45;;;;;;;1.10;0.90;;;;;;;2.74;59.31;93822.02;106654;1275;24354;-71
2023/03/11 15:04:31;;;;;;;2.40;1.30;;;;;;;2.68;59.64;93820.02;106607;1276;22521;-70
2023/03/11 15:07:03;;;;;;;1.60;0.90;;;;;;;2.65;59.73;93824.42;106616;1276;24454;-70
2023/03/11 15:09:32;;;;;;;1.80;1.20;;;;;;;2.60;59.20;93817.20;106615;1275;24359;-70
2023/03/11 15:12:04;;;;;;;1.90;1.30;;;;;;;2.57;59.20;93816.90;106651;1276;22613;-70
2023/03/11 15:14:35;;;;;;;2.10;1.00;;;;;;;2.60;59.72;93828.48;106594;1275;22660;-70
2023/03/11 15:17:27;;;;;;;2.00;0.90;;;;;;;2.63;59.78;93833.30;106584;1276;26630;-70
2023/03/11 15:20:40;;;;;;;1.60;1.00;;;;;;;2.62;60.15;93836.10;106551;1276;22572;-70
2023/03/11 15:23:21;;;;;;;2.20;0.80;;;;;;;2.59;60.68;93838.39;106574;1276;22524;-70
2023/03/11 15:25:49;;;;;;;1.10;0.90;;;;;;;2.56;60.52;93838.44;106608;1276;24079;-70
2023/03/11 15:28:22;;;;;;;3.10;1.20;;;;;;;2.57;60.80;93848.32;106629;1276;22556;-70
2023/03/11 15:31:11;;;;;;;;;;;;;;;2.57;60.58;93847.63;106645;1276;22491;-70
2023/03/11 15:33:40;;;;;;;0.80;0.80;;;;;;;2.57;60.26;93842.42;106555;1275;22562;-70
2023/03/11 15:36:28;;;;;;;1.60;1.10;;;;;;;2.54;59.43;93842.98;106633;1276;22769;-70
2023/03/11 15:39:25;;;;;;;0.80;0.60;;;;;;;2.54;60.18;93847.16;106694;1276;24183;-70
2023/03/11 15:42:06;;;;;;;1.50;1.00;;;;;;;2.53;59.72;93844.23;106537;1275;22663;-70
2023/03/11 15:45:12;;;;;;;6.30;1.20;;;;;;;2.52;60.30;93854.81;106620;1276;25210;-70
2023/03/11 15:47:41;;;;;;;5.20;0.90;;;;;;;2.51;59.90;93869.25;106766;1276;24378;-70
2023/03/11 15:50:30;;;;;;;1.80;0.70;;;;;;;2.46;59.29;93867.06;106699;1276;22675;-70
2023/03/11 15:53:18;;;;;;;4.70;1.80;;;;;;;2.48;60.31;93875.89;106611;1276;23834;-70
2023/03/11 15:55:47;;;;;;;9.90;3.90;;;;;;;2.51;60.52;93882.95;106573;1276;24372;-70
2023/03/11 15:58:18;;;;;;;7.30;1.60;;;;;;;2.51;59.59;93893.54;106681;1276;24263;-70
2023/03/11 16:00:55;;;;;;;6.30;1.70;;;;;;;2.45;59.59;93893.80;106625;1276;25479;-70
2023/03/11 16:03:23;;;;;;;4.00;1.50;;;;;;;2.36;59.21;93897.06;106811;1275;23880;-70
2023/03/11 16:05:52;;;;;;;12.00;3.30;;;;;;;2.28;57.79;93898.73;106640;1276;22519;-70
2023/03/11 16:08:20;;;;;;;3.30;1.50;;;;;;;2.24;58.02;93905.05;106611;1276;22513;-70
2023/03/11 16:10:48;;;;;;;7.20;1.30;;;;;;;2.19;58.31;93914.13;106582;1276;25372;-70
2023/03/11 16:13:16;;;;;;;5.30;1.40;;;;;;;2.17;58.68;93914.67;106616;1276;25535;-70
2023/03/11 16:15:45;;;;;;;4.50;0.80;;;;;;;2.17;58.68;93923.35;106567;1276;24429;-70
2023/03/11 16:18:15;;;;;;;3.00;1.50;;;;;;;2.13;58.57;93924.44;106649;1276;22517;-70
2023/03/11 16:20:46;;;;;;;2.90;1.90;;;;;;;2.07;59.02;93920.19;106601;1276;25397;-70
2023/03/11 16:23:17;;;;;;;4.60;2.80;;;;;;;2.03;59.27;93927.02;106594;1276;23922;-69
2023/03/11 16:25:46;;;;;;;1.20;1.10;;;;;;;1.97;58.49;93946.15;106641;1276;22601;-70
2023/03/11 16:28:15;;;;;;;6.10;1.20;;;;;;;1.96;58.91;93948.77;106651;1276;22551;-70
2023/03/11 16:30:44;;;;;;;1.20;1.10;;;;;;;1.95;59.34;93957.79;106656;1254;23007;-70
2023/03/11 16:33:12;;;;;;;3.80;1.50;;;;;;;1.95;60.13;93962.46;106597;1276;22625;-70
2023/03/11 16:35:40;;;;;;;5.60;1.50;;;;;;;1.93;60.70;93973.06;106621;1276;22633;-70
2023/03/11 16:38:09;;;;;;;2.40;1.70;;;;;;;1.92;61.23;93976.38;106636;1276;25469;-70
2023/03/11 16:40:38;;;;;;;1.60;0.90;;;;;;;1.91;60.98;93982.45;106624;1276;22625;-70
2023/03/11 16:43:09;;;;;;;4.00;1.60;;;;;;;1.85;61.44;93987.03;106650;1276;22633;-70
2023/03/11 16:45:37;;;;;;;3.10;2.10;;;;;;;1.80;62.23;93991.43;106685;1276;22513;-70
2023/03/11 16:48:06;;;;;;;5.30;2.00;;;;;;;1.75;62.26;94000.15;106624;1276;25322;-70
2023/03/11 16:50:34;;;;;;;5.60;2.00;;;;;;;1.68;62.56;94006.28;106623;1276;25578;-70